createdAt,value
2018-12-07T00:02:29.046Z,7.17
2018-12-07T00:05:00.516Z,7.40
2018-12-07T00:07:34.521Z,7.53
2018-12-07T00:10:13.094Z,7.73
2018-12-07T00:12:47.289Z,7.70
2018-12-07T00:15:25.007Z,8.30
2018-12-07T00:17:56.897Z,8.03
2018-12-07T00:20:30.969Z,8.70
2018-12-07T00:23:02.668Z,7.83
2018-12-07T00:25:34.050Z,8.47
2018-12-07T00:28:02.289Z,8.23
2018-12-07T00:30:30.546Z,8.90
2018-12-07T00:32:58.834Z,9.43
2018-12-07T00:35:27.098Z,9.07
2018-12-07T00:38:01.185Z,9.67
2018-12-07T00:40:37.795Z,9.80
2018-12-07T00:43:12.364Z,9.93
2018-12-07T00:48:50.045Z,9.63
2018-12-07T00:51:21.153Z,10.07
2018-12-07T00:56:47.710Z,10.73
2018-12-07T00:59:34.552Z,9.40
2018-12-07T01:02:16.857Z,10.47
2018-12-07T01:07:43.865Z,10.47
2018-12-07T01:10:12.230Z,10.73
2018-12-07T01:12:40.481Z,10.93
2018-12-07T01:15:08.684Z,10.47
2018-12-07T01:17:37.003Z,9.93
2018-12-07T01:20:05.442Z,10.90
2018-12-07T01:22:33.678Z,10.67
2018-12-07T01:25:01.915Z,9.63
2018-12-07T01:27:30.134Z,10.07
2018-12-07T01:29:58.366Z,9.50
2018-12-07T01:32:26.577Z,9.63
2018-12-07T01:34:54.785Z,10.13
2018-12-07T01:37:23.097Z,10.60
2018-12-07T01:39:51.297Z,10.40
2018-12-07T01:42:19.606Z,10.23
2018-12-07T01:44:47.814Z,9.20
2018-12-07T01:47:16.046Z,8.93
2018-12-07T01:49:44.254Z,8.50
2018-12-07T01:52:12.477Z,9.17
2018-12-07T01:54:40.800Z,8.97
2018-12-07T01:57:09.058Z,9.13
2018-12-07T01:59:37.266Z,8.23
2018-12-07T02:02:05.687Z,8.30
2018-12-07T02:04:33.922Z,8.70
2018-12-07T02:07:02.274Z,7.73
2018-12-07T02:09:30.583Z,8.33
2018-12-07T02:11:58.814Z,8.73
2018-12-07T02:14:41.424Z,8.10
2018-12-07T02:17:11.530Z,7.87
2018-12-07T02:19:45.754Z,7.70
2018-12-07T02:25:11.894Z,8.10
2018-12-07T02:27:45.565Z,8.47
2018-12-07T02:30:13.793Z,8.33
2018-12-07T02:32:42.322Z,7.87
2018-12-07T02:35:10.674Z,7.87
2018-12-07T02:37:42.387Z,8.27
2018-12-07T02:46:09.425Z,7.47
2018-12-07T02:48:43.732Z,7.50
2018-12-07T02:51:11.955Z,7.30
2018-12-07T02:53:40.207Z,6.67
2018-12-07T03:02:04.957Z,6.40
2018-12-07T03:07:11.506Z,5.80
2018-12-07T03:09:52.546Z,5.93
2018-12-07T03:12:26.555Z,5.10
2018-12-07T03:17:52.679Z,5.27
2018-12-07T03:20:21.027Z,5.40
2018-12-07T03:22:49.270Z,4.70
2018-12-07T03:25:17.703Z,5.40
2018-12-07T03:27:52.062Z,5.43
2018-12-07T03:30:26.231Z,5.33
2018-12-07T03:33:08.923Z,5.50
2018-12-07T03:35:44.210Z,5.27
2018-12-07T03:38:18.888Z,5.53
2018-12-07T03:40:52.558Z,5.40
2018-12-07T03:43:26.253Z,5.10
2018-12-07T03:46:01.275Z,5.77
2018-12-07T03:48:32.719Z,5.57
2018-12-07T03:51:07.012Z,6.73
2018-12-07T03:53:42.860Z,6.70
2018-12-07T03:56:17.615Z,7.03
2018-12-07T03:58:49.154Z,7.20
2018-12-07T04:01:22.765Z,8.17
2018-12-07T04:03:57.202Z,7.77
2018-12-07T04:06:28.777Z,6.80
2018-12-07T04:09:04.342Z,7.70
2018-12-07T04:11:38.279Z,6.50
2018-12-07T04:14:19.102Z,7.50
2018-12-07T04:16:51.694Z,6.13
2018-12-07T04:19:28.383Z,6.73
2018-12-07T04:22:02.370Z,6.60
2018-12-07T04:24:38.111Z,6.43
2018-12-07T04:27:11.923Z,6.40
2018-12-07T04:29:45.797Z,5.93
2018-12-07T04:32:19.581Z,5.57
2018-12-07T04:34:53.571Z,4.90
2018-12-07T04:37:27.684Z,5.40
2018-12-07T04:40:02.149Z,5.43
2018-12-07T04:42:36.724Z,5.10
2018-12-07T04:45:10.573Z,4.97
2018-12-07T04:47:44.468Z,4.97
2018-12-07T04:50:22.974Z,4.97
2018-12-07T04:52:56.894Z,4.63
2018-12-07T04:55:30.711Z,4.10
2018-12-07T04:58:02.668Z,4.33
2018-12-07T05:00:34.439Z,4.00
2018-12-07T05:03:09.055Z,3.97
2018-12-07T05:05:41.367Z,3.33
2018-12-07T05:08:15.708Z,3.63
2018-12-07T05:10:49.603Z,4.07
2018-12-07T05:13:23.527Z,3.80
2018-12-07T05:15:57.319Z,3.73
2018-12-07T05:18:31.189Z,3.57
2018-12-07T05:21:03.002Z,3.93
2018-12-07T05:23:34.967Z,3.33
2018-12-07T05:26:09.244Z,3.07
2018-12-07T05:28:47.466Z,3.20
2018-12-07T05:31:21.222Z,3.70
2018-12-07T05:33:55.152Z,3.40
2018-12-07T05:36:23.675Z,3.00
2018-12-07T05:41:54.804Z,2.60
2018-12-07T05:44:28.646Z,2.90
2018-12-07T05:47:02.969Z,2.80
2018-12-07T05:49:35.008Z,2.57
2018-12-07T05:52:06.293Z,2.80
2018-12-07T05:54:38.158Z,2.60
2018-12-07T05:57:12.288Z,2.53
2018-12-07T05:59:46.046Z,2.80
2018-12-07T06:02:20.117Z,2.30
2018-12-07T06:04:53.814Z,2.13
2018-12-07T06:07:25.898Z,2.33
2018-12-07T06:17:43.079Z,1.97
2018-12-07T06:25:22.082Z,1.97
2018-12-07T06:27:56.192Z,1.83
2018-12-07T06:30:30.037Z,2.20
2018-12-07T06:35:58.423Z,1.80
2018-12-07T06:38:34.778Z,1.90
2018-12-07T06:41:08.503Z,2.10
2018-12-07T06:43:42.470Z,2.00
2018-12-07T06:46:13.702Z,1.90
2018-12-07T06:49:26.618Z,1.83
2018-12-07T06:52:00.834Z,1.97
2018-12-07T06:54:38.614Z,1.90
2018-12-07T06:57:12.850Z,2.07
2018-12-07T06:59:48.865Z,1.83
2018-12-07T07:02:20.784Z,2.00
2018-12-07T07:04:50.686Z,2.00
2018-12-07T07:07:22.846Z,2.33
2018-12-07T07:09:56.272Z,2.50
2018-12-07T07:12:30.013Z,1.70
2018-12-07T07:15:01.302Z,1.90
2018-12-07T07:17:39.361Z,1.63
2018-12-07T07:20:10.418Z,1.90
2018-12-07T07:22:44.379Z,1.40
2018-12-07T07:25:18.522Z,1.70
2018-12-07T07:27:52.387Z,1.90
2018-12-07T07:35:30.954Z,1.47
2018-12-07T07:38:04.974Z,1.60
2018-12-07T07:40:36.547Z,1.90
2018-12-07T07:43:10.991Z,2.00
2018-12-07T07:45:45.035Z,1.67
2018-12-07T07:48:17.275Z,1.60
2018-12-07T07:50:49.442Z,1.80
2018-12-07T07:53:28.827Z,1.57
2018-12-07T07:56:00.447Z,1.63
2018-12-07T07:58:34.803Z,1.80
2018-12-07T08:01:06.180Z,1.60
2018-12-07T08:03:42.086Z,1.80
2018-12-07T08:06:16.278Z,1.70
2018-12-07T08:08:50.332Z,1.87
2018-12-07T08:11:28.811Z,1.80
2018-12-07T08:14:02.967Z,2.13
2018-12-07T08:16:36.671Z,2.00
2018-12-07T08:19:10.736Z,2.10
2018-12-07T08:21:48.410Z,1.83
2018-12-07T08:24:22.351Z,1.80
2018-12-07T08:26:56.434Z,2.17
2018-12-07T08:29:30.237Z,2.50
2018-12-07T08:32:03.730Z,2.20
2018-12-07T08:34:38.594Z,2.50
2018-12-07T08:37:11.241Z,2.60
2018-12-07T08:39:45.152Z,3.60
2018-12-07T08:42:19.036Z,3.13
2018-12-07T08:44:52.860Z,3.53
2018-12-07T08:47:30.587Z,3.70
2018-12-07T08:50:08.448Z,3.53
2018-12-07T08:52:46.207Z,3.50
2018-12-07T08:55:20.107Z,3.97
2018-12-07T08:57:56.537Z,3.83
2018-12-07T09:00:30.509Z,3.57
2018-12-07T09:03:02.293Z,4.07
2018-12-07T09:05:36.413Z,4.20
2018-12-07T09:08:15.174Z,4.13
2018-12-07T09:10:47.393Z,4.13
2018-12-07T09:13:21.293Z,4.43
2018-12-07T09:15:59.009Z,5.07
2018-12-07T09:18:30.682Z,5.53
2018-12-07T09:21:04.085Z,4.63
2018-12-07T09:23:37.928Z,4.87
2018-12-07T09:26:11.853Z,4.77
2018-12-07T09:28:46.403Z,5.47
2018-12-07T09:31:22.468Z,5.23
2018-12-07T09:33:54.238Z,4.97
2018-12-07T09:36:28.157Z,5.67
2018-12-07T09:39:02.030Z,4.47
2018-12-07T09:41:39.885Z,4.90
2018-12-07T09:44:13.978Z,4.50
2018-12-07T09:46:46.072Z,4.93
2018-12-07T09:49:19.477Z,3.80
2018-12-07T09:51:53.132Z,4.13
2018-12-07T09:54:25.225Z,3.30
2018-12-07T09:56:59.768Z,3.63
2018-12-07T09:59:35.910Z,3.50
2018-12-07T10:02:10.314Z,3.10
2018-12-07T10:04:44.343Z,2.90
2018-12-07T10:07:18.350Z,2.80
2018-12-07T10:09:52.122Z,2.70
2018-12-07T10:12:30.795Z,2.90
2018-12-07T10:15:04.802Z,2.77
2018-12-07T10:17:36.869Z,2.77
2018-12-07T10:20:16.207Z,3.00
2018-12-07T10:22:49.931Z,2.80
2018-12-07T10:25:23.862Z,2.33
2018-12-07T10:27:57.819Z,2.67
2018-12-07T10:30:32.125Z,3.00
2018-12-07T10:33:03.637Z,2.87
2018-12-07T10:35:39.724Z,2.90
2018-12-07T11:11:42.431Z,2.10
2018-12-07T11:14:16.473Z,2.10
2018-12-07T11:16:55.852Z,2.10
2018-12-07T11:19:35.308Z,1.90
2018-12-07T11:24:24.550Z,1.70
2018-12-07T11:27:01.440Z,1.40
2018-12-07T11:29:40.431Z,1.23
2018-12-07T11:32:18.848Z,1.30
2018-12-07T11:34:57.326Z,1.60
2018-12-07T11:37:28.836Z,1.30
2018-12-07T11:40:02.688Z,1.30
2018-12-07T11:42:37.262Z,1.13
2018-12-07T11:45:11.196Z,1.00
2018-12-07T11:47:45.627Z,1.10
2018-12-07T11:50:19.548Z,0.90
2018-12-07T11:52:53.422Z,0.87
2018-12-07T11:55:24.939Z,1.00
2018-12-07T11:57:56.714Z,0.80
2018-12-07T12:00:28.116Z,0.50
2018-12-07T12:03:02.035Z,0.80
2018-12-07T12:05:35.718Z,0.63
2018-12-07T12:08:07.071Z,0.50
2018-12-07T12:10:42.159Z,0.60
2018-12-07T12:13:16.206Z,0.63
2018-12-07T12:15:50.250Z,0.40
2018-12-07T12:18:22.800Z,0.57
2018-12-07T12:20:57.032Z,0.60
2018-12-07T12:23:30.646Z,0.60
2018-12-07T12:26:07.555Z,0.50
2018-12-07T12:28:43.996Z,0.50
2018-12-07T12:31:15.557Z,0.60
2018-12-07T12:33:49.758Z,0.60
2018-12-07T12:36:24.111Z,0.50
2018-12-07T12:38:55.466Z,0.60
2018-12-07T12:41:28.947Z,0.40
2018-12-07T12:44:02.587Z,0.70
2018-12-07T12:46:38.838Z,0.50
2018-12-07T12:49:07.158Z,0.50
2018-12-07T12:51:41.219Z,0.50
2018-12-07T12:54:15.018Z,0.70
2018-12-07T12:56:53.010Z,0.60
2018-12-07T12:59:26.545Z,0.70
2018-12-07T13:02:00.986Z,0.50
2018-12-07T13:04:33.186Z,0.53
2018-12-07T13:07:07.275Z,0.50
2018-12-07T13:12:39.046Z,0.70
2018-12-07T13:15:12.705Z,0.60
2018-12-07T13:17:46.735Z,0.53
2018-12-07T13:20:20.426Z,0.80
2018-12-07T13:22:54.310Z,0.70
2018-12-07T13:25:26.046Z,0.70
2018-12-07T13:28:00.094Z,0.50
2018-12-07T13:30:31.574Z,0.40
2018-12-07T13:33:05.000Z,0.30
2018-12-07T13:35:39.367Z,0.60
2018-12-07T13:38:13.011Z,0.47
2018-12-07T13:40:50.984Z,0.50
2018-12-07T13:43:22.462Z,0.50
2018-12-07T13:48:54.685Z,0.53
2018-12-07T13:51:29.286Z,0.43
2018-12-07T13:54:07.279Z,0.70
2018-12-07T13:56:41.907Z,0.60
2018-12-07T13:59:14.076Z,0.50
2018-12-07T14:04:46.024Z,0.53
2018-12-07T14:13:12.686Z,0.40
2018-12-07T14:15:44.157Z,0.70
2018-12-07T14:20:53.414Z,0.57
2018-12-07T14:23:25.268Z,0.60
2018-12-07T14:26:03.679Z,0.60
2018-12-07T14:28:38.095Z,0.60
2018-12-07T14:31:22.417Z,0.60
2018-12-07T14:33:56.588Z,0.70
2018-12-07T14:36:35.290Z,0.77
2018-12-07T14:39:09.154Z,0.70
2018-12-07T14:41:40.543Z,0.80
2018-12-07T14:44:12.543Z,0.60
2018-12-07T14:46:47.206Z,0.90
2018-12-07T14:49:21.256Z,1.07
2018-12-07T14:51:59.842Z,0.90
2018-12-07T14:54:33.965Z,1.00
2018-12-07T14:57:07.888Z,1.10
2018-12-07T14:59:40.096Z,1.17
2018-12-07T15:02:11.816Z,0.93
2018-12-07T15:04:46.031Z,1.20
2018-12-07T15:07:16.194Z,1.10
2018-12-07T15:09:50.190Z,1.90
2018-12-07T15:15:29.619Z,0.97
2018-12-07T15:18:03.657Z,1.50
2018-12-07T15:20:32.141Z,1.93
2018-12-07T15:23:03.641Z,1.43
2018-12-07T15:31:05.644Z,2.83
2018-12-07T15:33:37.966Z,2.17
2018-12-07T15:36:16.366Z,2.43
2018-12-07T15:38:56.818Z,1.90
2018-12-07T15:41:35.250Z,1.97
2018-12-07T15:44:11.526Z,2.50
2018-12-07T15:46:45.738Z,2.27
2018-12-07T15:49:19.997Z,2.60
2018-12-07T15:51:56.324Z,2.93
2018-12-07T15:54:30.210Z,3.10
2018-12-07T15:57:04.024Z,3.17
2018-12-07T15:59:38.184Z,4.13
2018-12-07T16:02:12.101Z,3.33
2018-12-07T16:04:46.028Z,2.87
2018-12-07T16:07:19.785Z,2.20
2018-12-07T16:09:53.831Z,2.00
2018-12-07T16:12:27.653Z,1.80
2018-12-07T16:15:01.901Z,2.07
2018-12-07T16:17:36.320Z,5.23
2018-12-07T16:20:12.434Z,4.20
2018-12-07T16:22:47.016Z,3.53
2018-12-07T16:25:21.478Z,3.00
2018-12-07T16:27:56.188Z,3.40
2018-12-07T16:30:30.096Z,3.40
2018-12-07T16:32:59.928Z,2.73
2018-12-07T16:35:34.338Z,2.30
2018-12-07T16:38:12.245Z,1.83
2018-12-07T16:40:46.909Z,2.57
2018-12-07T16:43:28.028Z,2.07
2018-12-07T16:46:02.382Z,1.30
2018-12-07T16:48:37.034Z,1.30
2018-12-07T16:51:11.301Z,1.73
2018-12-07T16:53:52.462Z,1.77
2018-12-07T16:56:24.528Z,1.43
2018-12-07T16:59:02.543Z,1.43
2018-12-07T17:04:32.332Z,1.20
2018-12-07T17:07:04.290Z,1.30
2018-12-07T17:09:36.284Z,1.33
2018-12-07T17:12:10.642Z,1.30
2018-12-07T17:14:42.482Z,1.00
2018-12-07T17:17:16.531Z,1.10
2018-12-07T17:19:51.423Z,1.30
2018-12-07T17:22:25.311Z,1.20
2018-12-07T17:25:03.055Z,1.10
2018-12-07T17:27:36.708Z,1.60
2018-12-07T17:30:10.549Z,3.47
2018-12-07T17:32:46.273Z,1.10
2018-12-07T17:35:20.034Z,1.90
2018-12-07T17:38:07.233Z,1.70
2018-12-07T17:40:41.239Z,2.07
2018-12-07T17:43:17.809Z,2.20
2018-12-07T17:45:49.917Z,1.53
2018-12-07T17:48:23.886Z,1.80
2018-12-07T17:50:55.902Z,1.60
2018-12-07T17:53:27.594Z,1.53
2018-12-07T17:56:02.146Z,1.50
2018-12-07T18:01:32.156Z,1.30
2018-12-07T18:04:06.473Z,1.40
2018-12-07T18:06:40.390Z,1.50
2018-12-07T18:09:12.463Z,1.30
2018-12-07T18:11:44.440Z,1.50
2018-12-07T18:14:18.825Z,1.47
2018-12-07T18:16:53.488Z,1.20
2018-12-07T18:19:27.647Z,1.40
2018-12-07T18:22:01.560Z,1.23
2018-12-07T18:24:33.608Z,1.20
2018-12-07T18:27:08.486Z,1.40
2018-12-07T18:29:39.637Z,1.50
2018-12-07T18:32:13.864Z,1.50
2018-12-07T18:34:47.861Z,1.27
2018-12-07T18:37:23.763Z,1.30
2018-12-07T18:39:58.441Z,1.23
2018-12-07T18:42:29.998Z,1.30
2018-12-07T18:47:55.205Z,1.53
2018-12-07T18:50:30.826Z,1.60
2018-12-07T18:52:59.345Z,1.30
2018-12-07T18:55:31.493Z,1.20
2018-12-07T18:57:59.915Z,1.03
2018-12-07T19:00:29.814Z,1.20
2018-12-07T19:03:05.314Z,1.20
2018-12-07T19:05:39.844Z,1.23
2018-12-07T19:08:13.884Z,1.30
2018-12-07T19:10:45.599Z,1.40
2018-12-07T19:13:17.560Z,1.20
2018-12-07T19:18:50.667Z,1.30
2018-12-07T19:21:26.465Z,1.20
2018-12-07T19:24:07.833Z,1.47
2018-12-07T19:26:42.304Z,1.87
2018-12-07T19:29:15.954Z,1.80
2018-12-07T19:31:53.468Z,1.40
2018-12-07T19:34:29.321Z,1.20
2018-12-07T19:37:03.863Z,1.23
2018-12-07T19:39:38.405Z,1.30
2018-12-07T19:42:12.896Z,1.40
2018-12-07T19:44:47.525Z,1.20
2018-12-07T19:47:19.990Z,1.40
2018-12-07T19:49:54.499Z,1.60
2018-12-07T19:52:32.616Z,1.67
2018-12-07T19:55:06.452Z,1.50
2018-12-07T19:57:37.926Z,1.90
2018-12-07T20:00:14.044Z,1.43
2018-12-07T20:02:44.202Z,1.70
2018-12-07T20:11:14.205Z,1.63
2018-12-07T20:13:48.143Z,1.33
2018-12-07T20:16:22.673Z,1.50
2018-12-07T20:19:03.948Z,1.53
2018-12-07T20:21:46.311Z,1.60
2018-12-07T20:24:20.764Z,1.40
2018-12-07T20:26:54.724Z,1.77
2018-12-07T20:29:35.922Z,1.43
2018-12-07T20:32:07.354Z,1.20
2018-12-07T20:37:51.821Z,1.30
2018-12-07T20:40:22.431Z,1.27
2018-12-07T20:45:49.427Z,1.37
2018-12-07T20:48:23.800Z,1.70
2018-12-07T20:51:08.601Z,1.40
2018-12-07T20:53:37.141Z,1.20
2018-12-07T20:59:03.170Z,1.17
2018-12-07T21:01:32.802Z,1.30
2018-12-07T21:04:39.990Z,1.13
2018-12-07T21:08:19.544Z,1.30
2018-12-07T21:11:08.729Z,1.33
2018-12-07T21:14:45.723Z,1.30
2018-12-07T21:17:27.580Z,1.33
2018-12-07T21:20:01.385Z,1.10
2018-12-07T21:22:34.888Z,1.40
2018-12-07T21:25:09.634Z,1.23
2018-12-07T21:27:38.223Z,0.90
2018-12-07T21:31:26.005Z,1.20
2018-12-07T21:34:08.661Z,1.03
2018-12-07T21:36:47.471Z,1.03
2018-12-07T21:39:24.049Z,1.00
2018-12-07T21:41:52.466Z,0.83
2018-12-07T21:44:20.842Z,0.80
2018-12-07T21:46:49.095Z,0.90
2018-12-07T21:49:17.455Z,0.80
2018-12-07T21:51:54.828Z,0.90
2018-12-07T21:54:23.303Z,0.90
2018-12-07T21:56:51.609Z,0.70
2018-12-07T21:59:20.278Z,1.00
2018-12-07T22:01:49.082Z,0.80
2018-12-07T22:04:17.464Z,0.83
2018-12-07T22:06:45.931Z,0.50
2018-12-07T22:09:14.375Z,1.00
2018-12-07T22:11:42.611Z,0.80
2018-12-07T22:14:17.280Z,0.70
2018-12-07T22:16:49.486Z,0.80
2018-12-07T22:22:21.470Z,0.70
2018-12-07T22:24:55.125Z,0.73
2018-12-07T22:30:40.822Z,0.70
2018-12-07T22:33:09.166Z,0.60
2018-12-07T22:35:37.720Z,0.70
2018-12-07T22:38:06.315Z,0.60
2018-12-07T22:40:40.669Z,0.77
2018-12-07T22:46:07.103Z,0.50
2018-12-07T22:48:35.533Z,0.47
2018-12-07T22:51:04.121Z,0.60
2018-12-07T22:53:35.472Z,0.50
2018-12-07T22:56:09.808Z,0.60
2018-12-07T22:58:41.808Z,0.50
2018-12-07T23:01:22.697Z,0.60
2018-12-07T23:03:52.645Z,0.57
2018-12-07T23:06:24.597Z,0.50
2018-12-07T23:09:11.037Z,0.30
2018-12-07T23:14:43.511Z,0.57
2018-12-07T23:17:17.383Z,0.50
2018-12-07T23:19:52.939Z,0.60
2018-12-07T23:25:36.336Z,0.50
2018-12-07T23:28:09.723Z,0.80
2018-12-07T23:30:44.942Z,0.70
2018-12-07T23:36:11.130Z,0.50
2018-12-07T23:38:39.347Z,0.53
2018-12-07T23:41:07.593Z,0.70
2018-12-07T23:43:39.527Z,0.60
2018-12-07T23:46:11.218Z,0.60
2018-12-07T23:48:39.478Z,0.60
2018-12-07T23:51:07.737Z,0.80
2018-12-07T23:53:37.321Z,0.63
2018-12-07T23:56:05.553Z,0.80
2018-12-07T23:58:33.762Z,0.80
